Time;durP1;ratioP1;P1;durP2;ratioP2;P2;SDS_P1;SDS_P2;PMS_P1;PMS_P2;Temp;Humidity;BMP_temperature;BMP_pressure;BME280_temperature;BME280_humidity;BME280_pressure;Samples;Min_cycle;Max_cycle;Signal;HPM_P1;HPM_P2
2022/03/23 00:02:08;;;;;;;14.47;8.10;;;;;7.50;102459.00;;;;5105529;28;20233;-68
2022/03/23 00:04:55;;;;;;;13.57;7.53;;;;;7.50;102452.00;;;;5105226;28;20336;-68
2022/03/23 00:07:41;;;;;;;22.10;8.30;;;;;7.50;102452.00;;;;5091520;28;20373;-68
2022/03/23 00:10:28;;;;;;;16.90;7.63;;;;;7.40;102455.00;;;;5101925;28;20689;-68
2022/03/23 00:13:14;;;;;;;16.27;7.73;;;;;7.50;102455.00;;;;5104219;28;20234;-68
2022/03/23 00:16:00;;;;;;;12.83;6.87;;;;;7.40;102463.00;;;;5101222;28;20234;-67
2022/03/23 00:18:48;;;;;;;17.97;6.83;;;;;7.40;102462.00;;;;5088751;28;20231;-68
2022/03/23 00:21:34;;;;;;;15.53;7.67;;;;;7.20;102456.00;;;;5080657;28;20231;-68
2022/03/23 00:24:20;;;;;;;14.30;7.50;;;;;7.20;102451.00;;;;5102440;28;20234;-69
2022/03/23 00:27:07;;;;;;;14.30;7.73;;;;;7.20;102456.00;;;;5102668;28;21014;-66
2022/03/23 00:29:53;;;;;;;17.57;7.13;;;;;7.10;102454.00;;;;5104083;28;20238;-68
2022/03/23 00:32:39;;;;;;;14.30;6.60;;;;;7.10;102458.00;;;;5090999;28;20350;-68
2022/03/23 00:35:27;;;;;;;13.77;6.30;;;;;7.00;102447.00;;;;5104650;28;20234;-68
2022/03/23 00:38:13;;;;;;;12.33;7.37;;;;;7.10;102450.00;;;;5103976;28;20234;-68
2022/03/23 00:41:00;;;;;;;15.20;6.73;;;;;7.00;102452.00;;;;5104880;28;20223;-68
2022/03/23 00:43:47;;;;;;;21.93;8.43;;;;;7.00;102450.00;;;;5091995;28;20234;-67
2022/03/23 00:46:33;;;;;;;15.67;7.87;;;;;6.90;102450.00;;;;5088581;28;20234;-68
2022/03/23 00:49:20;;;;;;;18.20;7.60;;;;;7.00;102449.00;;;;5104319;28;20353;-68
2022/03/23 00:52:08;;;;;;;19.03;8.03;;;;;6.90;102450.00;;;;5104820;28;20352;-67
2022/03/23 00:54:54;;;;;;;13.37;7.43;;;;;6.90;102446.00;;;;5096216;28;20229;-67
2022/03/23 00:57:40;;;;;;;15.80;8.37;;;;;6.80;102447.00;;;;5087292;28;20242;-67
2022/03/23 01:00:26;;;;;;;12.97;7.57;;;;;6.90;102447.00;;;;5102771;28;20226;-68
2022/03/23 01:03:13;;;;;;;17.93;7.60;;;;;6.70;102440.00;;;;5103074;28;20225;-67
2022/03/23 01:05:59;;;;;;;20.23;8.17;;;;;6.70;102440.00;;;;5100179;28;20615;-67
2022/03/23 01:08:47;;;;;;;17.13;7.30;;;;;6.60;102454.00;;;;5063759;28;20232;-67
2022/03/23 01:11:34;;;;;;;15.03;7.37;;;;;6.70;102451.00;;;;5072083;28;20234;-68
2022/03/23 01:14:22;;;;;;;17.00;7.80;;;;;6.60;102444.00;;;;5055809;28;20235;-69
2022/03/23 01:17:09;;;;;;;14.63;7.23;;;;;6.50;102427.00;;;;5052532;28;20290;-67
2022/03/23 01:19:56;;;;;;;15.17;7.27;;;;;6.30;102436.00;;;;5071838;28;20223;-67
2022/03/23 01:22:43;;;;;;;17.33;7.70;;;;;6.60;102438.00;;;;5083825;28;20269;-67
2022/03/23 01:25:35;;;;;;;14.90;7.73;;;;;6.50;102431.00;;;;5087587;28;20238;-69
2022/03/23 01:28:22;;;;;;;15.67;7.43;;;;;6.30;102436.00;;;;5100539;28;20284;-67
2022/03/23 01:31:10;;;;;;;12.23;6.87;;;;;6.20;102438.00;;;;5104344;28;20237;-67
2022/03/23 01:33:59;;;;;;;15.80;6.93;;;;;6.30;102445.00;;;;5093492;28;20245;-67
2022/03/23 01:36:45;;;;;;;19.03;8.20;;;;;6.30;102440.00;;;;5097807;28;20226;-68
2022/03/23 01:39:31;;;;;;;16.50;7.83;;;;;6.20;102449.00;;;;5100437;28;21136;-69
2022/03/23 01:42:19;;;;;;;15.97;7.23;;;;;6.20;102435.00;;;;5092278;28;20303;-68
2022/03/23 01:45:08;;;;;;;14.50;7.90;;;;;6.10;102447.00;;;;5103532;28;20296;-68
2022/03/23 01:47:54;;;;;;;14.83;7.77;;;;;6.20;102426.00;;;;5092649;28;20234;-68
2022/03/23 01:50:41;;;;;;;13.57;6.93;;;;;6.00;102432.00;;;;5099677;28;20222;-68
2022/03/23 01:53:27;;;;;;;15.03;7.43;;;;;6.00;102438.00;;;;5102688;28;20283;-69
2022/03/23 01:56:14;;;;;;;12.87;7.03;;;;;6.00;102428.00;;;;5110694;28;20233;-68
2022/03/23 01:59:02;;;;;;;13.97;6.97;;;;;5.90;102437.00;;;;5108815;28;20352;-65
2022/03/23 02:01:48;;;;;;;13.57;7.43;;;;;6.10;102430.00;;;;5097879;28;20744;-67
2022/03/23 02:04:36;;;;;;;13.87;6.93;;;;;6.00;102432.00;;;;5110227;28;20259;-67
2022/03/23 02:07:22;;;;;;;13.23;6.97;;;;;6.00;102432.00;;;;5110346;28;20225;-68
2022/03/23 02:10:09;;;;;;;14.67;7.07;;;;;6.00;102423.00;;;;5108068;28;20815;-68
2022/03/23 02:12:56;;;;;;;13.00;7.17;;;;;5.80;102425.00;;;;5107879;28;20229;-68
2022/03/23 02:15:43;;;;;;;10.03;6.13;;;;;5.70;102420.00;;;;5109132;28;20996;-69
2022/03/23 02:18:30;;;;;;;14.80;7.10;;;;;5.80;102419.00;;;;5103915;28;20231;-69
2022/03/23 02:21:18;;;;;;;13.43;6.90;;;;;5.80;102420.00;;;;5110419;28;20238;-70
2022/03/23 02:24:07;;;;;;;13.30;6.10;;;;;5.70;102423.00;;;;5107105;28;20226;-68
2022/03/23 02:26:54;;;;;;;16.70;7.60;;;;;5.70;102429.00;;;;5090001;28;20248;-69
2022/03/23 02:29:41;;;;;;;16.23;7.10;;;;;5.60;102419.00;;;;5094408;28;20355;-68
2022/03/23 02:32:27;;;;;;;13.70;6.73;;;;;5.70;102423.00;;;;5109904;28;20234;-68
2022/03/23 02:35:14;;;;;;;17.30;8.20;;;;;5.60;102416.00;;;;5107229;28;20332;-70
2022/03/23 02:38:00;;;;;;;18.57;7.40;;;;;5.60;102424.00;;;;5110048;28;20317;-67
2022/03/23 02:40:48;;;;;;;16.00;7.30;;;;;5.50;102416.00;;;;5095722;28;20226;-69
2022/03/23 02:43:34;;;;;;;14.10;7.43;;;;;5.50;102407.00;;;;5107540;28;20604;-69
2022/03/23 02:46:21;;;;;;;17.47;6.97;;;;;5.50;102427.00;;;;5109989;28;20276;-68
2022/03/23 02:49:09;;;;;;;13.37;7.10;;;;;5.40;102413.00;;;;5109477;28;20226;-67
2022/03/23 02:51:55;;;;;;;17.30;7.63;;;;;5.50;102408.00;;;;5097461;28;20234;-67
2022/03/23 03:04:18;;;;;;;14.23;7.80;;;;;5.30;102414.00;;;;5077320;28;20273;-67
2022/03/23 03:07:05;;;;;;;16.23;7.67;;;;;5.00;102417.00;;;;5107182;28;20221;-68
2022/03/23 03:09:51;;;;;;;19.47;9.00;;;;;5.20;102421.00;;;;5090562;28;20230;-68
2022/03/23 03:12:37;;;;;;;20.07;8.00;;;;;5.20;102414.00;;;;5106431;28;20327;-69
2022/03/23 03:15:25;;;;;;;15.47;7.70;;;;;5.20;102420.00;;;;5103517;28;20230;-68
2022/03/23 03:18:11;;;;;;;17.07;7.57;;;;;5.30;102414.00;;;;5101094;28;20231;-68
2022/03/23 03:20:58;;;;;;;17.43;7.60;;;;;5.20;102424.00;;;;5094683;28;20234;-69
2022/03/23 03:23:47;;;;;;;12.53;6.83;;;;;5.20;102422.00;;;;5087137;28;20746;-67
2022/03/23 03:26:33;;;;;;;17.57;7.20;;;;;5.10;102418.00;;;;5099005;28;20236;-67
2022/03/23 03:29:20;;;;;;;11.03;6.17;;;;;5.10;102423.00;;;;5105890;28;20684;-70
2022/03/23 03:32:08;;;;;;;12.73;6.87;;;;;5.10;102411.00;;;;5080803;28;20223;-70
2022/03/23 03:34:55;;;;;;;16.10;7.13;;;;;5.00;102409.00;;;;5090435;28;20722;-68
2022/03/23 03:37:41;;;;;;;12.40;5.80;;;;;4.90;102412.00;;;;5106414;28;20365;-66
2022/03/23 03:40:28;;;;;;;11.93;6.70;;;;;4.90;102415.00;;;;5102434;28;20226;-68
2022/03/23 03:43:15;;;;;;;9.67;6.13;;;;;4.80;102418.00;;;;5079833;28;20216;-68
2022/03/23 03:46:06;;;;;;;12.23;6.60;;;;;4.90;102418.00;;;;5078120;28;20398;-69
2022/03/23 03:48:54;;;;;;;12.17;6.73;;;;;5.00;102418.00;;;;5061572;28;20887;-67
2022/03/23 03:51:40;;;;;;;18.10;8.07;;;;;4.80;102409.00;;;;5085614;28;20250;-68
2022/03/23 03:54:26;;;;;;;15.63;7.27;;;;;4.90;102421.00;;;;5085880;28;20618;-68
2022/03/23 03:57:13;;;;;;;19.83;8.90;;;;;4.80;102429.00;;;;5086352;28;20905;-67
2022/03/23 03:59:59;;;;;;;17.33;7.60;;;;;4.70;102420.00;;;;5074068;28;20231;-70
2022/03/23 04:02:45;;;;;;;16.33;7.87;;;;;4.90;102429.00;;;;5070238;28;20235;-70
2022/03/23 04:05:34;;;;;;;15.73;7.13;;;;;4.80;102374.00;;;;5098641;28;20238;-68
2022/03/23 04:08:20;;;;;;;14.60;7.10;;;;;4.80;102423.00;;;;5088675;28;20493;-68
2022/03/23 04:11:07;;;;;;;13.67;7.10;;;;;4.80;102420.00;;;;5083038;28;20235;-68
2022/03/23 04:13:53;;;;;;;15.07;8.00;;;;;4.70;102423.00;;;;5063188;28;20776;-70
2022/03/23 04:16:40;;;;;;;12.47;7.53;;;;;4.80;102425.00;;;;5074240;28;20228;-68
2022/03/23 04:19:26;;;;;;;14.53;6.67;;;;;4.70;102426.00;;;;5085815;28;20300;-68
2022/03/23 04:22:14;;;;;;;18.33;7.73;;;;;4.70;102428.00;;;;5090770;28;20733;-69
2022/03/23 04:25:00;;;;;;;15.47;7.73;;;;;4.60;102427.00;;;;5080015;28;20234;-69
2022/03/23 04:27:48;;;;;;;13.97;7.30;;;;;4.60;102432.00;;;;5085335;28;20234;-70
2022/03/23 04:30:35;;;;;;;17.80;8.30;;;;;4.50;102429.00;;;;5095080;28;20238;-68
2022/03/23 04:33:21;;;;;;;15.83;7.50;;;;;4.40;102426.00;;;;5081818;28;20304;-70
2022/03/23 04:36:08;;;;;;;15.27;7.70;;;;;4.60;102425.00;;;;5085431;28;20294;-68
2022/03/23 04:38:55;;;;;;;18.17;7.97;;;;;4.50;102440.00;;;;5068969;28;20273;-67
2022/03/23 04:41:42;;;;;;;15.57;7.70;;;;;4.30;102432.00;;;;5071477;28;20404;-68
2022/03/23 04:44:28;;;;;;;16.03;7.27;;;;;4.30;102439.00;;;;5084729;28;20238;-68
2022/03/23 04:47:14;;;;;;;15.13;7.30;;;;;4.20;102446.00;;;;5082844;28;20229;-69
2022/03/23 04:50:00;;;;;;;15.77;8.70;;;;;4.30;102435.00;;;;5072681;28;20276;-68
2022/03/23 04:52:49;;;;;;;15.60;7.73;;;;;4.10;102449.00;;;;5068450;28;20377;-67
2022/03/23 04:55:37;;;;;;;15.03;7.07;;;;;4.20;102440.00;;;;5081883;28;20235;-68
2022/03/23 04:58:25;;;;;;;15.87;7.47;;;;;4.10;102438.00;;;;5084541;28;20227;-68
2022/03/23 05:01:11;;;;;;;16.70;7.43;;;;;4.10;102450.00;;;;5084933;28;20731;-68
2022/03/23 05:03:59;;;;;;;20.87;8.47;;;;;4.20;102450.00;;;;5068819;28;20231;-69
2022/03/23 05:06:45;;;;;;;16.43;7.37;;;;;4.10;102440.00;;;;5084749;28;20231;-69
2022/03/23 05:09:32;;;;;;;17.53;6.97;;;;;4.00;102447.00;;;;5083889;28;20235;-68
2022/03/23 05:12:20;;;;;;;13.20;6.50;;;;;3.90;102449.00;;;;5105201;27;20305;-68
2022/03/23 05:15:09;;;;;;;15.70;7.70;;;;;4.00;102451.00;;;;5095736;28;20288;-66
2022/03/23 05:17:56;;;;;;;17.00;8.27;;;;;3.90;102451.00;;;;5101512;28;20239;-68
2022/03/23 05:20:42;;;;;;;15.93;7.47;;;;;3.80;102452.00;;;;5103939;28;20255;-69
2022/03/23 05:23:29;;;;;;;17.23;7.63;;;;;3.80;102444.00;;;;5101544;28;20285;-71
2022/03/23 05:26:15;;;;;;;14.23;6.97;;;;;3.70;102452.00;;;;5101619;28;20589;-68
2022/03/23 05:29:03;;;;;;;22.60;8.83;;;;;4.00;102465.00;;;;5092023;28;20218;-68
2022/03/23 05:31:49;;;;;;;15.43;7.93;;;;;3.80;102441.00;;;;5071926;28;20227;-69
2022/03/23 05:34:35;;;;;;;16.30;8.50;;;;;3.90;102455.00;;;;5082131;28;20243;-68
2022/03/23 05:37:22;;;;;;;17.17;8.53;;;;;3.90;102460.00;;;;5101937;27;20873;-68
2022/03/23 05:40:09;;;;;;;20.53;8.87;;;;;3.90;102462.00;;;;5089250;28;20226;-68
2022/03/23 05:42:56;;;;;;;22.77;9.37;;;;;3.80;102456.00;;;;5084351;28;20277;-69
2022/03/23 05:45:43;;;;;;;15.37;7.87;;;;;3.80;102456.00;;;;5084159;28;20231;-70
2022/03/23 05:48:30;;;;;;;15.50;7.60;;;;;3.80;102452.00;;;;5080215;28;20235;-69
2022/03/23 05:51:20;;;;;;;14.83;7.40;;;;;4.00;102456.00;;;;5103866;28;20237;-68
2022/03/23 05:54:07;;;;;;;15.80;7.60;;;;;3.80;102457.00;;;;5092545;28;20303;-68
2022/03/23 05:56:53;;;;;;;12.20;7.37;;;;;3.90;102458.00;;;;5077287;28;20321;-68
2022/03/23 05:59:39;;;;;;;16.30;7.93;;;;;3.90;102459.00;;;;5103524;28;20748;-69
2022/03/23 06:02:27;;;;;;;16.63;6.47;;;;;4.00;102464.00;;;;5103648;28;20222;-67
2022/03/23 06:05:14;;;;;;;17.53;8.30;;;;;4.10;102479.00;;;;5104142;28;20233;-69
2022/03/23 06:08:00;;;;;;;12.67;8.10;;;;;4.00;102464.00;;;;5090497;28;20218;-70
2022/03/23 06:10:46;;;;;;;15.47;7.57;;;;;4.10;102471.00;;;;5103762;28;20231;-71
2022/03/23 06:13:33;;;;;;;15.63;7.57;;;;;4.20;102472.00;;;;5103719;28;20806;-68
2022/03/23 06:16:19;;;;;;;12.73;7.13;;;;;4.30;102470.00;;;;5104708;28;20226;-70
2022/03/23 06:19:07;;;;;;;17.27;8.97;;;;;4.30;102474.00;;;;5096545;28;20332;-70
2022/03/23 06:21:54;;;;;;;16.30;8.07;;;;;4.50;102476.00;;;;5088723;28;20848;-68
2022/03/23 06:24:40;;;;;;;15.63;7.90;;;;;4.40;102489.00;;;;5104309;28;20318;-68
2022/03/23 06:27:27;;;;;;;16.93;8.43;;;;;4.50;102480.00;;;;5077724;28;20235;-68
2022/03/23 06:30:13;;;;;;;16.93;8.43;;;;;4.50;102485.00;;;;5084193;28;20338;-67
2022/03/23 06:33:00;;;;;;;16.63;8.73;;;;;4.70;102479.00;;;;5070088;28;20230;-67
2022/03/23 06:35:48;;;;;;;16.80;8.47;;;;;4.80;102485.00;;;;5083931;28;20312;-69
2022/03/23 06:38:34;;;;;;;16.17;8.67;;;;;5.00;102484.00;;;;5087489;28;20361;-68
2022/03/23 06:41:20;;;;;;;15.90;8.13;;;;;5.10;102491.00;;;;5072616;28;20235;-69
2022/03/23 06:44:06;;;;;;;18.07;9.43;;;;;5.30;102487.00;;;;5061332;28;20291;-70
2022/03/23 06:46:53;;;;;;;15.33;8.43;;;;;5.30;102496.00;;;;5058728;28;20838;-68
2022/03/23 06:49:39;;;;;;;18.17;9.23;;;;;5.40;102495.00;;;;5093903;28;20233;-67
2022/03/23 06:52:27;;;;;;;21.33;9.63;;;;;5.60;102495.00;;;;5083023;28;20232;-68
2022/03/23 06:55:13;;;;;;;20.53;9.67;;;;;5.70;102497.00;;;;5099205;28;20364;-69
2022/03/23 06:58:00;;;;;;;16.97;9.30;;;;;5.80;102498.00;;;;5103655;28;20218;-70
2022/03/23 07:00:46;;;;;;;19.67;9.03;;;;;5.90;102500.00;;;;5125926;28;20413;-71
2022/03/23 07:03:33;;;;;;;23.30;10.20;;;;;6.10;102507.00;;;;5128265;28;20237;-70
2022/03/23 07:06:19;;;;;;;20.77;9.87;;;;;6.20;102510.00;;;;5129521;28;20233;-70
2022/03/23 07:12:12;;;;;;;21.60;10.93;;;;;6.40;102509.00;;;;5119119;28;20418;-73
2022/03/23 07:14:59;;;;;;;26.13;11.43;;;;;6.50;102512.00;;;;5081629;28;20250;-68
2022/03/23 07:17:46;;;;;;;23.03;11.83;;;;;6.70;102508.00;;;;5086636;28;20669;-68
2022/03/23 07:20:32;;;;;;;34.47;12.70;;;;;6.90;102517.00;;;;5103453;28;20249;-68
2022/03/23 07:23:19;;;;;;;21.27;10.83;;;;;7.00;102511.00;;;;5079210;28;20234;-65
2022/03/23 07:26:06;;;;;;;21.40;11.47;;;;;7.10;102512.00;;;;5092722;28;20292;-68
2022/03/23 07:28:53;;;;;;;23.53;10.43;;;;;7.30;102506.00;;;;5106051;28;20619;-67
2022/03/23 07:31:40;;;;;;;22.10;11.00;;;;;7.40;102496.00;;;;5103077;28;20237;-68
2022/03/23 07:34:26;;;;;;;23.03;10.93;;;;;7.60;102503.00;;;;5092620;28;20238;-68
2022/03/23 07:37:12;;;;;;;23.43;10.80;;;;;7.70;102510.00;;;;5103730;28;20230;-69
2022/03/23 07:40:00;;;;;;;25.17;11.80;;;;;7.90;102513.00;;;;5083652;28;20301;-68
2022/03/23 07:42:51;;;;;;;22.60;10.33;;;;;7.90;102522.00;;;;5106381;28;20301;-68
2022/03/23 07:45:38;;;;;;;26.03;11.40;;;;;7.90;102515.00;;;;5106002;28;20242;-69
2022/03/23 07:48:24;;;;;;;25.57;10.93;;;;;8.00;102511.00;;;;5103356;28;20234;-69
2022/03/23 07:51:11;;;;;;;21.83;10.63;;;;;8.20;102514.00;;;;5093834;28;20231;-67
2022/03/23 07:53:57;;;;;;;26.27;11.00;;;;;8.40;102508.00;;;;5089990;28;20235;-68
2022/03/23 07:56:43;;;;;;;23.17;11.27;;;;;8.50;102516.00;;;;5105890;28;20232;-68
2022/03/23 07:59:31;;;;;;;19.17;10.63;;;;;8.60;102514.00;;;;5106008;28;20239;-70
2022/03/23 08:02:17;;;;;;;22.07;11.27;;;;;8.70;102510.00;;;;5096230;28;20760;-69
2022/03/23 08:05:05;;;;;;;23.03;11.57;;;;;8.90;102525.00;;;;5092007;27;20633;-67
2022/03/23 08:07:51;;;;;;;20.43;11.03;;;;;9.20;102523.00;;;;5105770;28;20277;-69
2022/03/23 08:10:40;;;;;;;23.20;10.77;;;;;9.30;102531.00;;;;5104698;27;20235;-67
2022/03/23 08:13:26;;;;;;;20.80;10.87;;;;;9.40;102528.00;;;;5105844;27;20219;-67
2022/03/23 08:16:16;;;;;;;20.73;10.67;;;;;9.40;102523.00;;;;5094661;28;20236;-68
2022/03/23 08:19:03;;;;;;;24.10;11.17;;;;;9.60;102530.00;;;;5072442;28;20588;-68
2022/03/23 08:21:49;;;;;;;19.73;11.07;;;;;9.90;102520.00;;;;5085395;28;20235;-68
2022/03/23 08:24:35;;;;;;;25.27;12.07;;;;;10.00;102528.00;;;;5082596;28;20705;-67
2022/03/23 08:27:21;;;;;;;22.43;11.60;;;;;10.30;102519.00;;;;5085052;28;20259;-68
2022/03/23 08:30:09;;;;;;;21.10;11.80;;;;;10.40;102526.00;;;;5085745;28;20622;-69
2022/03/23 08:32:56;;;;;;;22.83;11.90;;;;;10.60;102517.00;;;;5076143;28;20234;-69
2022/03/23 08:35:43;;;;;;;22.83;11.83;;;;;10.60;102518.00;;;;5075080;28;20238;-68
2022/03/23 08:38:29;;;;;;;20.40;11.53;;;;;10.80;102524.00;;;;5073581;28;20232;-68
2022/03/23 08:41:16;;;;;;;21.20;11.20;;;;;11.00;102524.00;;;;5067717;28;20231;-68
2022/03/23 08:44:03;;;;;;;24.87;11.97;;;;;11.20;102520.00;;;;5090165;28;20238;-70
2022/03/23 08:46:49;;;;;;;20.53;11.47;;;;;11.40;102520.00;;;;5102889;27;20230;-67
2022/03/23 08:49:37;;;;;;;24.40;12.00;;;;;11.50;102526.00;;;;5099419;28;20394;-69
2022/03/23 08:52:23;;;;;;;23.77;12.63;;;;;11.90;102527.00;;;;5089246;28;20235;-68
2022/03/23 08:55:14;;;;;;;21.97;11.80;;;;;11.90;102522.00;;;;5071700;28;20227;-68
2022/03/23 08:58:01;;;;;;;24.03;12.63;;;;;12.20;102530.00;;;;5103068;28;20758;-68
2022/03/23 09:00:47;;;;;;;26.37;11.40;;;;;12.40;102525.00;;;;5104354;28;20246;-67
2022/03/23 09:03:33;;;;;;;21.63;11.40;;;;;12.60;102536.00;;;;5105338;27;20234;-67
2022/03/23 09:06:21;;;;;;;23.27;12.03;;;;;12.80;102537.00;;;;5105748;28;20234;-70
2022/03/23 09:09:07;;;;;;;22.27;12.17;;;;;13.00;102529.00;;;;5075654;28;20365;-68
2022/03/23 09:11:54;;;;;;;23.07;11.70;;;;;13.00;102524.00;;;;5080038;28;20368;-69
2022/03/23 09:14:40;;;;;;;23.60;11.90;;;;;13.20;102523.00;;;;5075445;28;20243;-69
2022/03/23 09:17:27;;;;;;;24.33;11.47;;;;;13.40;102525.00;;;;5058924;28;20240;-69
2022/03/23 09:20:14;;;;;;;23.00;11.23;;;;;13.70;102529.00;;;;5050354;28;20888;-71
2022/03/23 09:23:03;;;;;;;20.60;11.07;;;;;13.70;102523.00;;;;5066348;28;20227;-69
2022/03/23 09:25:51;;;;;;;20.73;11.47;;;;;13.90;102525.00;;;;5083779;28;20232;-68
2022/03/23 09:28:38;;;;;;;19.67;10.60;;;;;14.00;102524.00;;;;5104589;28;20391;-68
2022/03/23 09:31:25;;;;;;;24.73;12.00;;;;;14.20;102528.00;;;;5104750;28;20234;-69
2022/03/23 09:34:12;;;;;;;21.30;10.37;;;;;14.50;102532.00;;;;5083289;28;20286;-68
2022/03/23 09:40:04;;;;;;;25.47;12.57;;;;;14.70;102527.00;;;;5061476;28;20232;-68
2022/03/23 09:42:51;;;;;;;25.10;12.10;;;;;14.90;102531.00;;;;5081999;28;20412;-69
2022/03/23 09:45:46;;;;;;;21.93;11.57;;;;;15.00;102525.00;;;;5054417;28;20285;-69
2022/03/23 09:48:34;;;;;;;21.97;11.93;;;;;15.10;102527.00;;;;5053286;28;20321;-70
2022/03/23 09:51:21;;;;;;;23.53;12.23;;;;;15.20;102523.00;;;;5061104;28;20695;-68
2022/03/23 09:54:08;;;;;;;22.07;11.10;;;;;15.50;102523.00;;;;5070391;28;20246;-68
2022/03/23 09:56:55;;;;;;;24.73;12.83;;;;;15.80;102526.00;;;;5102220;28;20719;-69
2022/03/23 09:59:42;;;;;;;21.97;11.20;;;;;15.90;102522.00;;;;5103878;28;20236;-69
2022/03/23 10:03:17;;;;;;;24.80;12.67;;;;;16.00;102523.00;;;;5104220;28;20724;-70
2022/03/23 10:06:57;;;;;;;22.03;11.93;;;;;16.10;102525.00;;;;5067964;28;20228;-68
2022/03/23 10:10:19;;;;;;;22.43;12.27;;;;;16.40;102520.00;;;;5026495;28;20229;-69
2022/03/23 10:14:00;;;;;;;21.83;12.53;;;;;16.60;102527.00;;;;5092547;28;20227;-69
2022/03/23 10:17:10;;;;;;;23.90;11.83;;;;;16.60;102531.00;;;;5094422;28;20308;-69
2022/03/23 10:19:57;;;;;;;24.63;11.77;;;;;16.60;102521.00;;;;5101729;28;20235;-68
2022/03/23 10:22:47;;;;;;;26.10;12.63;;;;;16.80;102519.00;;;;5102500;28;20300;-69
2022/03/23 10:25:33;;;;;;;25.27;12.73;;;;;16.90;102526.00;;;;5085568;28;20800;-70
2022/03/23 10:28:20;;;;;;;26.20;13.47;;;;;16.80;102522.00;;;;5093217;27;20242;-67
2022/03/23 10:31:17;;;;;;;22.90;12.87;;;;;17.20;102525.00;;;;5092317;28;20333;-69
2022/03/23 10:34:08;;;;;;;22.27;12.23;;;;;17.10;102521.00;;;;5095727;28;20277;-68
2022/03/23 10:36:55;;;;;;;23.87;13.43;;;;;17.40;102518.00;;;;5106309;28;20311;-70
2022/03/23 10:39:41;;;;;;;23.90;13.20;;;;;17.30;102502.00;;;;5106248;28;20234;-70
2022/03/23 10:42:29;;;;;;;24.57;13.07;;;;;17.60;102510.00;;;;5108014;28;20250;-69
2022/03/23 10:45:18;;;;;;;25.73;12.43;;;;;17.70;102514.00;;;;5085335;28;20300;-67
2022/03/23 10:48:11;;;;;;;24.00;13.23;;;;;17.70;102513.00;;;;5081889;28;20862;-68
2022/03/23 10:50:59;;;;;;;25.80;13.30;;;;;17.80;102508.00;;;;5076099;28;21098;-68
2022/03/23 10:53:45;;;;;;;24.53;12.90;;;;;18.20;102506.00;;;;5106167;27;20227;-68
2022/03/23 10:56:33;;;;;;;25.73;13.10;;;;;18.10;102505.00;;;;5107573;28;20242;-69
2022/03/23 10:59:25;;;;;;;20.10;11.53;;;;;18.20;102506.00;;;;5089416;28;20253;-67
2022/03/23 11:02:13;;;;;;;29.77;12.80;;;;;18.30;102497.00;;;;5075678;28;20342;-71
2022/03/23 11:05:02;;;;;;;23.10;12.00;;;;;18.30;102499.00;;;;5076140;28;20315;-71
2022/03/23 11:07:49;;;;;;;23.27;12.90;;;;;18.50;102501.00;;;;5082269;28;20294;-70
2022/03/23 11:16:45;;;;;;;22.77;12.23;;;;;18.90;102495.00;;;;5074927;28;20300;-70
2022/03/23 11:19:31;;;;;;;22.93;12.43;;;;;19.10;102492.00;;;;5084203;28;20246;-72
2022/03/23 11:22:19;;;;;;;22.33;13.07;;;;;19.20;102493.00;;;;5069641;28;20244;-71
2022/03/23 11:25:06;;;;;;;27.23;13.37;;;;;19.50;102495.00;;;;5107022;27;20226;-71
2022/03/23 11:27:52;;;;;;;23.83;13.47;;;;;19.40;102488.00;;;;5092006;27;20243;-72
2022/03/23 11:30:38;;;;;;;24.47;13.40;;;;;19.40;102486.00;;;;5104647;28;20341;-72
2022/03/23 11:33:26;;;;;;;22.13;13.07;;;;;19.50;102487.00;;;;5101241;28;20243;-72
2022/03/23 11:36:13;;;;;;;24.83;13.43;;;;;19.70;102490.00;;;;5092149;28;20232;-72
2022/03/23 11:39:04;;;;;;;24.70;13.50;;;;;19.70;102476.00;;;;5105939;27;20222;-74
2022/03/23 11:41:53;;;;;;;24.40;12.67;;;;;19.90;102480.00;;;;5106959;28;20279;-72
2022/03/23 11:44:40;;;;;;;23.17;13.10;;;;;19.50;102478.00;;;;5106768;28;20305;-74
2022/03/23 11:47:34;;;;;;;23.70;13.00;;;;;19.40;102469.00;;;;5097709;28;20303;-71
2022/03/23 11:50:26;;;;;;;26.90;13.43;;;;;19.80;102471.00;;;;5097977;28;20879;-72
2022/03/23 11:53:20;;;;;;;25.73;13.47;;;;;19.90;102469.00;;;;5090909;28;20231;-72
2022/03/23 11:56:10;;;;;;;21.00;12.43;;;;;20.30;102470.00;;;;5106188;27;20714;-71
2022/03/23 11:59:21;;;;;;;19.83;11.13;;;;;20.20;102469.00;;;;5103467;27;20312;-72
2022/03/23 12:02:08;;;;;;;20.70;11.33;;;;;20.20;102462.00;;;;5089511;27;20230;-72
2022/03/23 12:05:26;;;;;;;20.27;11.70;;;;;20.40;102468.00;;;;5105834;27;20274;-71
2022/03/23 12:08:14;;;;;;;18.83;10.33;;;;;20.30;102461.00;;;;5106151;27;20232;-73
2022/03/23 12:11:00;;;;;;;13.67;8.63;;;;;20.50;102460.00;;;;5105753;27;20222;-74
2022/03/23 12:13:57;;;;;;;13.63;8.43;;;;;20.70;102447.00;;;;5103108;28;20501;-70
2022/03/23 12:17:03;;;;;;;12.93;8.23;;;;;20.80;102454.00;;;;5084436;28;20544;-75
2022/03/23 12:20:12;;;;;;;14.77;8.87;;;;;20.60;102458.00;;;;5075902;28;20269;-71
2022/03/23 12:23:30;;;;;;;14.77;9.20;;;;;21.10;102449.00;;;;5097352;28;20229;-71
2022/03/23 12:26:26;;;;;;;16.00;10.00;;;;;21.10;102444.00;;;;5091369;28;20974;-72
2022/03/23 12:29:22;;;;;;;15.37;9.30;;;;;21.10;102442.00;;;;5056728;28;20291;-72
2022/03/23 12:32:10;;;;;;;15.23;7.87;;;;;21.10;102443.00;;;;5067935;28;20230;-71
2022/03/23 12:34:57;;;;;;;12.27;7.53;;;;;21.30;102430.00;;;;5060465;28;20691;-70
2022/03/23 12:37:44;;;;;;;13.57;8.10;;;;;21.20;102437.00;;;;5083157;28;20698;-70
2022/03/23 12:40:37;;;;;;;15.53;8.60;;;;;21.40;102428.00;;;;5084127;28;20234;-72
2022/03/23 12:43:37;;;;;;;16.93;9.60;;;;;22.00;102426.00;;;;5072344;28;20361;-71
2022/03/23 12:46:27;;;;;;;17.57;9.60;;;;;22.00;102429.00;;;;5072430;28;20589;-71
2022/03/23 12:58:31;;;;;;;18.17;10.57;;;;;21.70;102426.00;;;;5090979;28;20721;-72
2022/03/23 13:01:20;;;;;;;16.57;10.37;;;;;21.80;102412.00;;;;5087838;28;20239;-71
2022/03/23 13:04:09;;;;;;;16.57;10.27;;;;;22.00;102414.00;;;;5102230;27;20814;-71
2022/03/23 13:06:56;;;;;;;18.00;10.63;;;;;21.90;102417.00;;;;5104852;28;20225;-72
2022/03/23 13:09:42;;;;;;;19.23;10.53;;;;;21.90;102409.00;;;;5105240;28;20234;-71
2022/03/23 13:12:28;;;;;;;18.17;10.37;;;;;22.10;102404.00;;;;5093314;28;20309;-73
2022/03/23 13:15:17;;;;;;;18.60;10.40;;;;;22.40;102411.00;;;;5089768;27;20799;-72
2022/03/23 13:18:04;;;;;;;18.80;11.00;;;;;22.50;102399.00;;;;5102221;27;20879;-72
2022/03/23 13:20:53;;;;;;;17.87;11.03;;;;;22.50;102416.00;;;;5101853;28;20712;-72
2022/03/23 13:23:43;;;;;;;18.77;11.50;;;;;22.50;102410.00;;;;5105051;27;20288;-69
2022/03/23 13:26:32;;;;;;;20.30;11.57;;;;;22.80;102406.00;;;;5093250;28;20233;-72
2022/03/23 13:29:25;;;;;;;18.43;10.43;;;;;22.40;102405.00;;;;5091030;28;20235;-72
2022/03/23 13:32:12;;;;;;;20.80;11.63;;;;;22.40;102408.00;;;;5104599;28;20241;-69
2022/03/23 13:34:59;;;;;;;18.83;11.10;;;;;22.30;102406.00;;;;5104053;28;21105;-71
2022/03/23 13:38:07;;;;;;;22.90;11.83;;;;;22.70;102402.00;;;;5094329;28;20258;-74
2022/03/23 13:43:59;;;;;;;20.30;11.20;;;;;23.20;102395.00;;;;5083825;28;20350;-71
2022/03/23 13:46:45;;;;;;;20.03;11.57;;;;;22.90;102402.00;;;;5083952;28;20227;-72
2022/03/23 13:49:32;;;;;;;18.20;11.17;;;;;23.00;102394.00;;;;5078574;28;20741;-72
2022/03/23 13:52:19;;;;;;;20.40;12.43;;;;;23.00;102391.00;;;;5064799;28;20231;-73
2022/03/23 13:55:09;;;;;;;19.00;12.17;;;;;22.80;102395.00;;;;5074190;28;20236;-72
2022/03/23 13:57:56;;;;;;;21.77;11.47;;;;;22.80;102386.00;;;;5074080;28;20280;-73
2022/03/23 14:00:42;;;;;;;19.80;11.53;;;;;23.00;102381.00;;;;5073212;28;20369;-71
2022/03/23 14:03:31;;;;;;;22.80;12.43;;;;;22.70;102382.00;;;;5070297;28;20893;-72
2022/03/23 14:06:18;;;;;;;19.80;11.40;;;;;22.60;102368.00;;;;5090906;28;20246;-72
2022/03/23 14:09:05;;;;;;;21.07;12.03;;;;;22.40;102378.00;;;;5085638;28;20239;-72
2022/03/23 14:12:02;;;;;;;22.97;12.20;;;;;22.60;102377.00;;;;5084304;28;20234;-71
2022/03/23 14:14:49;;;;;;;25.57;12.13;;;;;22.60;102376.00;;;;5084602;28;20235;-71
2022/03/23 14:17:36;;;;;;;17.83;11.83;;;;;22.80;102364.00;;;;5075057;28;20607;-73
2022/03/23 14:20:22;;;;;;;28.33;12.27;;;;;23.20;102372.00;;;;5070378;28;20300;-72